Ana Sayfa
METAR-TAF:

METAR-TAF

Havaalanları :

Jönköping, İsveç

Enlem: 57-46N, Boylam: 014-05E, yükseklik: 226 m

Güncel hava durumu gözlemi

Rapor saat 02:20 UTC de 27 dakika önce yapıldı.
Rüzgar batı/güneybatıdan 2 kt
Sıcaklık -13°C
Nem 92%
Basınç 1000 hPa
Görüş mesafesi 10 km veya daha fazla

METAR: ESGJ 280220Z AUTO 24002KT 9999 NCD M13/M14 Q1000

Saat: 03:47 (02:47 UTC)

Tahmin

Rapor saat 23:30 UTC de 3 saat ve 17 dakika önce yapıldı.
Ayın 28'si saat 00 UTC'den ayın 28'si saat 02 UTC'ye kadar geçerli Tahmin
Rüzgar değişken yönden 2 kt
Görüş mesafesi 10 km veya daha fazla
1500 m altında bulut yok ve kümülonimbus yok
Olasılık 40%
ayın 28'si saat 00 UTC'den ayın 28'si saat 02 UTC'ye kadar
Görüş mesafesi: 0800 m
sis kütleleri

TAF: ESGJ 272330Z 2800/2802 VRB02KT CAVOK PROB40 2800/2802 0800 BCFG

4.000'den fazla havaalanı için hava durumu gözlemleri ve tahminleri (METAR ve TAF raporları).

Kullanılabilir istasyonlar harita üzerinde sarı ve kırmızı noktalarla gösterilir.

İstasyonun adını görmek için fareyi noktanın üzerinde gezdirin.

Sonrasında hava gözlem ve tahminlerini görmek için tıklayın.

Haritayı değiştirmek için: yaklaştırmak için siyah artı işaretli yeşil düğmeye ve uzaklaştırmak için de eksi işaretli düğmeye hızla tıklayın; bitişik haritalar için yeşil okları kullanın.


METAR-TAF: